Akhiok, Alaska
Current Conditions -  °F | °C
As of 4:56 AM on Monday 20 Oct 2014 (Local Time) from PAKH Reporting Station
Light Rain Light Rain  
Wind Chill: 26°   Ceiling: 4900
Heat Index: 36°   Visibility: 10mi
Dew Point: 24°   Wind: 18mph
Humidity: 62%   Direction: 300°WNW
Pressure: 29.09"   Gusts: 28mph
Location:  57.454°N, 153.546°W
Report Text: PAKH 201256Z AUTO 30016G24KT 10SM -RA FEW038 OVC049 02/M04 A2909 RMK AO2 TSNO T00221044 RAB43 P0000 SLP854 $
Loading
Personal Weather Stations






























Interactive Weather Map
Tropical Storm Tracking
New forecast layout! Learn more

10-Day Weather Forecast

Advertisements
Track Severe Weather on mobile